createdAt,value
2019-05-17T00:03:47.132Z,28.03
2019-05-17T00:07:56.709Z,27.43
2019-05-17T00:12:07.535Z,31.80
2019-05-17T00:16:17.477Z,26.80
2019-05-17T00:20:26.710Z,29.23
2019-05-17T00:24:37.023Z,27.57
2019-05-17T00:28:46.915Z,28.67
2019-05-17T00:32:56.952Z,30.93
2019-05-17T00:37:06.988Z,28.23
2019-05-17T00:41:17.600Z,29.17
2019-05-17T00:45:26.781Z,30.27
2019-05-17T00:49:37.198Z,31.37
2019-05-17T00:53:46.859Z,33.17
2019-05-17T00:57:56.514Z,37.60
2019-05-17T01:02:06.924Z,31.00
2019-05-17T01:06:16.904Z,34.73
2019-05-17T01:10:27.236Z,32.03
2019-05-17T01:14:37.277Z,25.50
2019-05-17T01:18:47.013Z,28.40
2019-05-17T01:22:56.672Z,28.20
2019-05-17T01:27:06.591Z,30.23
2019-05-17T01:31:17.213Z,33.20
2019-05-17T01:35:26.638Z,32.13
2019-05-17T01:39:37.499Z,31.23
2019-05-17T01:43:47.438Z,31.20
2019-05-17T01:47:56.299Z,29.77
2019-05-17T01:52:07.305Z,27.53
2019-05-17T01:56:16.946Z,28.63
2019-05-17T02:00:26.572Z,30.07
2019-05-17T02:04:37.372Z,32.50
2019-05-17T02:08:47.522Z,32.47
2019-05-17T02:12:57.001Z,28.70
2019-05-17T02:17:06.865Z,30.97
2019-05-17T02:21:16.849Z,29.33
2019-05-17T02:25:27.243Z,31.70
2019-05-17T02:29:36.040Z,31.67
2019-05-17T02:33:44.901Z,28.07
2019-05-17T02:37:53.646Z,32.83
2019-05-17T02:42:02.932Z,30.80
2019-05-17T02:46:13.642Z,33.80
2019-05-17T02:50:23.331Z,32.83
2019-05-17T02:54:32.774Z,33.60
2019-05-17T02:58:43.853Z,38.33
2019-05-17T03:02:53.663Z,32.37
2019-05-17T03:07:03.749Z,35.07
2019-05-17T03:11:13.474Z,36.80
2019-05-17T03:15:23.356Z,36.57
2019-05-17T03:19:33.036Z,34.97
2019-05-17T03:23:43.550Z,35.63
2019-05-17T03:27:53.622Z,37.73
2019-05-17T03:32:08.448Z,36.00
2019-05-17T03:36:17.005Z,36.87
2019-05-17T03:40:55.425Z,37.47
2019-05-17T03:44:33.711Z,39.13
2019-05-17T03:49:03.893Z,39.77
2019-05-17T03:53:13.155Z,39.00
2019-05-17T03:57:23.859Z,37.97
2019-05-17T04:01:32.910Z,38.27
2019-05-17T04:05:42.933Z,37.37
2019-05-17T04:09:53.166Z,37.47
2019-05-17T04:14:02.972Z,38.20
2019-05-17T04:18:12.994Z,42.53
2019-05-17T04:22:23.880Z,39.83
2019-05-17T04:26:32.755Z,36.37
2019-05-17T04:30:43.326Z,37.57
2019-05-17T04:34:52.667Z,38.23
2019-05-17T04:39:02.448Z,33.60
2019-05-17T04:43:13.629Z,36.00
2019-05-17T04:47:23.008Z,33.43
2019-05-17T04:51:32.430Z,33.23
2019-05-17T04:55:43.050Z,36.27
2019-05-17T04:59:52.345Z,35.27
2019-05-17T05:04:03.674Z,32.27
2019-05-17T05:08:13.018Z,30.83
2019-05-17T05:12:22.822Z,37.30
2019-05-17T05:16:32.136Z,29.87
2019-05-17T05:20:43.494Z,31.67
2019-05-17T05:24:52.520Z,40.73
2019-05-17T05:29:02.163Z,38.23
2019-05-17T05:33:12.802Z,33.13
2019-05-17T05:37:23.209Z,37.10
2019-05-17T05:41:32.052Z,32.20
2019-05-17T05:45:41.603Z,33.33
2019-05-17T05:49:52.007Z,32.40
2019-05-17T05:54:01.671Z,27.60
2019-05-17T05:58:12.046Z,30.80
2019-05-17T06:02:21.892Z,29.30
2019-05-17T06:06:32.213Z,26.30
2019-05-17T06:10:42.642Z,26.43
2019-05-17T06:14:52.383Z,28.67
2019-05-17T06:19:02.396Z,29.00
2019-05-17T06:23:12.275Z,27.83
2019-05-17T06:27:25.568Z,25.07
2019-05-17T06:31:36.898Z,22.87
2019-05-17T06:40:13.948Z,26.67
2019-05-17T06:44:23.121Z,27.63
2019-05-17T06:48:32.063Z,26.80
2019-05-17T06:52:43.108Z,26.70
2019-05-17T06:56:52.499Z,28.10
2019-05-17T07:01:01.581Z,21.50
2019-05-17T07:05:12.113Z,20.03
2019-05-17T07:09:23.440Z,18.37
2019-05-17T07:13:32.075Z,18.57
2019-05-17T07:17:40.677Z,17.90
2019-05-17T07:21:49.501Z,17.87
2019-05-17T07:25:59.645Z,15.77
2019-05-17T07:30:09.908Z,20.00
2019-05-17T07:34:19.997Z,17.13
2019-05-17T07:38:30.262Z,19.27
2019-05-17T07:42:39.730Z,16.43
2019-05-17T07:46:51.875Z,18.77
2019-05-17T07:50:59.343Z,17.93
2019-05-17T07:55:10.766Z,21.03
2019-05-17T07:59:20.000Z,18.67
2019-05-17T08:03:29.920Z,16.80
2019-05-17T08:07:40.186Z,17.93
2019-05-17T08:11:50.226Z,18.57
2019-05-17T08:15:59.541Z,15.70
2019-05-17T08:20:10.542Z,13.77
2019-05-17T08:24:19.610Z,22.77
2019-05-17T08:28:28.313Z,15.07
2019-05-17T08:32:39.748Z,13.60
2019-05-17T08:36:47.161Z,15.83
2019-05-17T08:40:55.729Z,13.27
2019-05-17T08:45:06.581Z,14.70
2019-05-17T08:49:15.208Z,13.67
2019-05-17T08:53:23.833Z,12.77
2019-05-17T08:57:32.440Z,12.67
2019-05-17T09:01:41.801Z,11.17
2019-05-17T09:05:52.696Z,10.47
2019-05-17T09:10:01.856Z,12.20
2019-05-17T09:14:10.834Z,10.27
2019-05-17T09:18:20.562Z,9.97
2019-05-17T09:22:30.551Z,10.23
2019-05-17T09:26:39.915Z,8.47
2019-05-17T09:30:50.548Z,14.67
2019-05-17T09:35:00.337Z,66.27
2019-05-17T09:39:09.539Z,11.23
2019-05-17T09:43:20.541Z,29.60
2019-05-17T09:47:30.086Z,35.13
2019-05-17T09:51:39.641Z,16.10
2019-05-17T09:55:49.821Z,8.13
2019-05-17T10:00:00.213Z,9.80
2019-05-17T10:04:13.027Z,7.60
2019-05-17T10:08:19.350Z,8.50
2019-05-17T10:12:35.050Z,8.27
2019-05-17T10:16:43.655Z,8.83
2019-05-17T10:20:52.253Z,11.83
2019-05-17T10:25:00.934Z,7.53
2019-05-17T10:29:09.996Z,7.47
2019-05-17T10:33:19.990Z,7.50
2019-05-17T10:37:30.326Z,7.03
2019-05-17T10:41:40.594Z,8.00
2019-05-17T10:45:49.793Z,7.00
2019-05-17T10:49:58.444Z,6.80
2019-05-17T10:54:09.441Z,8.20
2019-05-17T10:58:17.263Z,7.60
2019-05-17T11:02:25.902Z,7.03
2019-05-17T11:06:34.536Z,9.70
2019-05-17T11:10:43.128Z,7.43
2019-05-17T11:15:09.378Z,7.07
2019-05-17T11:19:02.044Z,7.50
2019-05-17T11:23:10.655Z,5.13
2019-05-17T11:27:19.262Z,9.83
2019-05-17T11:31:27.920Z,5.20
2019-05-17T11:35:36.494Z,6.13
2019-05-17T11:39:45.187Z,5.70
2019-05-17T11:43:54.080Z,5.30
2019-05-17T11:48:02.710Z,5.97
2019-05-17T11:52:11.355Z,7.03
2019-05-17T11:56:20.078Z,6.70
2019-05-17T12:00:29.609Z,5.60
2019-05-17T12:04:38.139Z,12.23
2019-05-17T12:08:46.971Z,7.20
2019-05-17T12:12:55.931Z,6.10
2019-05-17T12:17:04.631Z,8.10
2019-05-17T12:21:13.229Z,6.60
2019-05-17T12:25:21.862Z,8.37
2019-05-17T12:29:30.580Z,9.90
2019-05-17T12:33:39.181Z,8.07
2019-05-17T12:37:47.794Z,5.50
2019-05-17T12:41:56.813Z,7.13
2019-05-17T12:46:05.748Z,6.37
2019-05-17T12:50:14.503Z,6.03
2019-05-17T12:54:23.113Z,6.43
2019-05-17T12:58:31.802Z,4.37
2019-05-17T13:02:40.420Z,5.40
2019-05-17T13:06:49.015Z,5.60
2019-05-17T13:10:57.645Z,9.20
2019-05-17T13:15:07.631Z,7.00
2019-05-17T13:19:16.283Z,5.87
2019-05-17T13:23:24.894Z,8.60
2019-05-17T13:27:33.545Z,5.87
2019-05-17T13:31:51.104Z,6.57
2019-05-17T13:35:59.769Z,7.63
2019-05-17T13:40:09.928Z,6.60
2019-05-17T13:44:19.011Z,5.93
2019-05-17T13:48:27.612Z,9.60
2019-05-17T13:52:36.237Z,9.13
2019-05-17T13:56:44.828Z,9.60
2019-05-17T14:00:55.935Z,9.33
2019-05-17T14:05:07.660Z,7.73
2019-05-17T14:09:16.553Z,7.40
2019-05-17T14:13:25.224Z,7.63
2019-05-17T14:17:33.883Z,9.13
2019-05-17T14:21:42.903Z,7.40
2019-05-17T14:25:51.492Z,9.80
2019-05-17T14:30:00.144Z,6.90
2019-05-17T14:34:08.774Z,7.47
2019-05-17T14:38:17.491Z,7.50
2019-05-17T14:42:26.115Z,8.87
2019-05-17T14:46:34.734Z,13.40
2019-05-17T14:50:43.361Z,7.10
2019-05-17T14:54:51.957Z,16.80
2019-05-17T14:59:00.577Z,10.47
2019-05-17T15:03:09.640Z,10.05
2019-05-17T15:07:18.278Z,10.13
2019-05-17T15:11:26.924Z,10.33
2019-05-17T15:15:35.514Z,10.90
2019-05-17T15:19:44.159Z,9.80
2019-05-17T15:23:52.798Z,11.47
2019-05-17T15:28:01.683Z,9.03
2019-05-17T15:32:10.353Z,11.70
2019-05-17T15:36:18.940Z,10.37
2019-05-17T15:40:27.623Z,10.93
2019-05-17T15:44:36.414Z,9.27
2019-05-17T15:48:45.009Z,11.30
2019-05-17T15:52:53.670Z,10.57
2019-05-17T15:57:02.319Z,9.37
2019-05-17T16:01:11.009Z,9.20
2019-05-17T16:05:19.781Z,14.97
2019-05-17T16:09:28.420Z,11.53
2019-05-17T16:13:37.055Z,10.30
2019-05-17T16:17:46.063Z,11.13
2019-05-17T16:21:54.765Z,10.53
2019-05-17T16:26:03.497Z,12.40
2019-05-17T16:30:12.440Z,10.53
2019-05-17T16:34:21.062Z,9.70
2019-05-17T16:38:29.993Z,11.27
2019-05-17T16:42:38.617Z,12.60
2019-05-17T16:46:47.300Z,11.07
2019-05-17T16:50:55.930Z,12.33
2019-05-17T16:55:06.193Z,13.63
2019-05-17T16:59:14.976Z,11.23
2019-05-17T17:03:23.618Z,12.53
2019-05-17T17:07:32.295Z,12.90
2019-05-17T17:11:40.871Z,13.10
2019-05-17T17:15:51.820Z,12.03
2019-05-17T17:20:00.417Z,11.73
2019-05-17T17:24:09.042Z,11.13
2019-05-17T17:28:17.678Z,13.67
2019-05-17T17:32:26.620Z,11.80
2019-05-17T17:36:35.234Z,11.93
2019-05-17T17:40:43.921Z,12.43
2019-05-17T17:44:52.536Z,15.87
2019-05-17T17:49:01.185Z,15.67
2019-05-17T17:53:09.845Z,12.40
2019-05-17T17:57:18.470Z,14.50
2019-05-17T18:01:27.066Z,14.83
2019-05-17T18:05:35.691Z,15.23
2019-05-17T18:09:44.681Z,11.70
2019-05-17T18:13:53.279Z,12.17
2019-05-17T18:18:01.907Z,14.00
2019-05-17T18:22:10.885Z,13.43
2019-05-17T18:26:19.517Z,13.50
2019-05-17T18:30:28.215Z,12.87
2019-05-17T18:34:36.943Z,11.30
2019-05-17T18:38:48.673Z,12.47
2019-05-17T18:42:57.409Z,13.83
2019-05-17T18:47:06.443Z,12.80
2019-05-17T18:51:15.207Z,13.30
2019-05-17T18:55:23.837Z,13.60
2019-05-17T18:59:32.437Z,14.90
2019-05-17T19:03:41.099Z,17.03
2019-05-17T19:07:49.721Z,15.40
2019-05-17T19:11:58.354Z,17.30
2019-05-17T19:16:06.924Z,17.27
2019-05-17T19:20:16.113Z,17.00
2019-05-17T19:24:24.741Z,16.27
2019-05-17T19:28:33.390Z,18.70
2019-05-17T19:32:42.309Z,17.43
2019-05-17T19:36:50.973Z,18.70
2019-05-17T19:40:59.637Z,22.53
2019-05-17T19:45:09.838Z,17.50
2019-05-17T19:49:18.489Z,18.10
2019-05-17T19:53:27.208Z,21.10
2019-05-17T19:57:36.306Z,19.47
2019-05-17T20:01:44.956Z,17.93
2019-05-17T20:05:53.576Z,18.07
2019-05-17T20:10:02.190Z,17.40
2019-05-17T20:14:10.784Z,15.60
2019-05-17T20:18:19.883Z,14.97
2019-05-17T20:22:28.517Z,15.20
2019-05-17T20:26:40.116Z,15.70
2019-05-17T20:30:48.721Z,16.63
2019-05-17T20:34:57.363Z,15.63
2019-05-17T20:39:06.425Z,15.40
2019-05-17T20:43:15.050Z,18.50
2019-05-17T20:47:23.755Z,13.60
2019-05-17T20:51:32.393Z,13.60
2019-05-17T20:55:42.171Z,14.50
2019-05-17T20:59:51.083Z,15.00
2019-05-17T21:04:01.881Z,19.73
2019-05-17T21:08:10.506Z,16.60
2019-05-17T21:12:19.459Z,14.80
2019-05-17T21:16:28.069Z,14.87
2019-05-17T21:20:37.496Z,15.40
2019-05-17T21:24:46.133Z,14.03
2019-05-17T21:28:54.763Z,14.23
2019-05-17T21:33:03.391Z,13.07
2019-05-17T21:37:12.109Z,14.30
2019-05-17T21:41:20.765Z,13.40
2019-05-17T21:45:29.375Z,14.07
2019-05-17T21:49:38.443Z,12.93
2019-05-17T21:53:47.042Z,15.37
2019-05-17T21:57:55.676Z,12.63
2019-05-17T22:02:04.358Z,16.30
2019-05-17T22:06:22.151Z,14.53
2019-05-17T22:10:30.766Z,13.10
2019-05-17T22:14:39.386Z,13.83
2019-05-17T22:18:48.015Z,11.97
2019-05-17T22:22:56.600Z,13.07
2019-05-17T22:27:05.322Z,14.37
2019-05-17T22:31:13.972Z,17.57
2019-05-17T22:35:22.653Z,17.53
2019-05-17T22:39:31.290Z,15.40
2019-05-17T22:43:39.944Z,14.10
2019-05-17T22:47:48.574Z,15.30
2019-05-17T22:51:57.210Z,18.00
2019-05-17T22:56:05.907Z,15.77
2019-05-17T23:00:14.841Z,15.70
2019-05-17T23:04:23.490Z,20.83
2019-05-17T23:08:44.232Z,17.73
2019-05-17T23:12:52.879Z,21.10
2019-05-17T23:17:01.547Z,15.13
2019-05-17T23:21:10.162Z,15.70
2019-05-17T23:25:18.810Z,15.97
2019-05-17T23:29:27.489Z,14.50
2019-05-17T23:33:36.128Z,17.27
2019-05-17T23:37:44.755Z,18.07
2019-05-17T23:41:53.395Z,16.37
2019-05-17T23:46:02.048Z,15.13
2019-05-17T23:50:10.932Z,16.60
2019-05-17T23:54:19.592Z,19.53
2019-05-17T23:58:28.208Z,17.33
